Time;durP1;ratioP1;P1;durP2;ratioP2;P2;SDS_P1;SDS_P2;PMS_P1;PMS_P2;Temp;Humidity;BMP_temperature;BMP_pressure;BME280_temperature;BME280_humidity;BME280_pressure;Samples;Min_cycle;Max_cycle;Signal;HPM_P1;HPM_P2
2022/11/22 00:03:30;;;;;;;7.85;2.45;;;;;;;7.85;79.20;98333.59;10181300;29;20146;-62
2022/11/22 00:08:32;;;;;;;8.45;1.45;;;;;;;7.89;78.51;98323.31;10179091;29;20079;-62
2022/11/22 00:13:33;;;;;;;7.03;1.35;;;;;;;7.88;78.95;98317.13;10186550;29;20052;-62
2022/11/22 00:18:35;;;;;;;8.05;1.33;;;;;;;7.97;79.05;98306.22;10187638;29;20067;-62
2022/11/22 00:23:36;;;;;;;7.05;1.65;;;;;;;7.97;78.70;98300.88;10188993;29;20084;-61
2022/11/22 00:28:38;;;;;;;8.45;1.48;;;;;;;7.90;78.78;98295.53;10182110;29;20079;-61
2022/11/22 00:33:40;;;;;;;6.93;1.52;;;;;;;7.92;78.58;98290.81;10194824;29;20044;-61
2022/11/22 00:38:42;;;;;;;8.07;1.85;;;;;;;7.93;78.68;98279.06;10192728;29;20103;-62
2022/11/22 00:43:44;;;;;;;5.28;1.60;;;;;;;7.82;79.10;98272.50;10191320;29;20052;-62
2022/11/22 00:48:45;;;;;;;11.55;2.17;;;;;;;7.83;79.15;98265.31;10194356;29;20072;-62
2022/11/22 00:53:47;;;;;;;10.32;2.80;;;;;;;7.95;78.75;98258.25;10193774;29;20058;-62
2022/11/22 00:58:48;;;;;;;6.20;1.80;;;;;;;8.02;78.25;98253.72;10187384;29;20050;-62
2022/11/22 01:03:49;;;;;;;4.38;1.45;;;;;;;7.94;79.12;98253.97;10183116;28;20130;-62
2022/11/22 01:08:51;;;;;;;2.70;1.55;;;;;;;7.98;79.26;98273.06;10187288;29;20067;-62
2022/11/22 01:13:52;;;;;;;3.72;1.92;;;;;;;8.02;78.88;98267.09;10184242;29;20131;-63
2022/11/22 01:18:54;;;;;;;8.57;2.03;;;;;;;8.02;78.98;98277.81;10180293;29;20131;-62
2022/11/22 01:23:55;;;;;;;8.50;1.80;;;;;;;7.87;79.36;98272.69;10186264;29;20142;-62
2022/11/22 01:28:56;;;;;;;6.55;2.20;;;;;;;7.98;78.29;98276.59;10188130;29;20071;-62
2022/11/22 01:33:58;;;;;;;7.53;1.83;;;;;;;7.95;78.97;98291.19;10224411;28;20131;-62
2022/11/22 01:39:00;;;;;;;3.42;2.08;;;;;;;7.80;79.85;98282.59;10226678;29;20098;-62
2022/11/22 01:44:19;;;;;;;8.02;3.05;;;;;;;7.81;79.83;98288.75;10230969;28;20048;-62
2022/11/22 01:49:29;;;;;;;6.32;2.20;;;;;;;7.86;79.15;98307.66;10224653;29;20127;-62
2022/11/22 01:54:35;;;;;;;9.05;2.30;;;;;;;7.86;79.69;98311.19;10226664;29;20055;-63
2022/11/22 01:59:43;;;;;;;8.30;2.38;;;;;;;7.66;80.21;98308.53;10223201;28;20520;-63
2022/11/22 02:04:46;;;;;;;16.65;6.82;;;;;;;7.62;79.66;98304.66;10226891;29;20445;-61
2022/11/22 02:09:50;;;;;;;9.88;2.88;;;;;;;7.57;80.49;98303.63;10224886;29;20122;-62
2022/11/22 02:14:52;;;;;;;4.72;2.55;;;;;;;7.67;79.38;98301.34;10223501;28;20051;-62
2022/11/22 02:19:54;;;;;;;8.80;3.20;;;;;;;7.83;79.83;98300.06;10220421;29;20098;-61
2022/11/22 02:25:02;;;;;;;14.45;4.40;;;;;;;7.98;79.70;98299.81;10226795;29;20127;-64
2022/11/22 02:30:04;;;;;;;11.85;5.28;;;;;;;7.91;79.36;98311.34;10222776;29;20467;-64
2022/11/22 02:35:19;;;;;;;7.80;4.05;;;;;;;7.77;79.67;98316.97;10184962;29;20506;-63
2022/11/22 02:40:21;;;;;;;8.30;3.80;;;;;;;7.81;79.90;98321.66;10185097;29;20127;-64
2022/11/22 02:45:23;;;;;;;11.10;3.58;;;;;;;7.95;79.64;98304.56;10181798;29;20131;-64
2022/11/22 02:50:24;;;;;;;12.10;4.30;;;;;;;8.08;79.62;98324.31;10186010;29;20143;-65
2022/11/22 02:55:25;;;;;;;9.82;3.38;;;;;;;8.07;79.00;98330.66;10190150;29;20087;-63
2022/11/22 03:00:27;;;;;;;10.63;4.18;;;;;;;8.14;79.24;98323.47;10172913;29;20054;-63
2022/11/22 03:05:28;;;;;;;10.23;3.45;;;;;;;8.19;79.86;98318.28;10182146;29;20462;-63
2022/11/22 03:10:30;;;;;;;13.05;5.13;;;;;;;8.29;79.15;98317.84;10181274;29;20055;-63
2022/11/22 03:15:31;;;;;;;8.85;3.53;;;;;;;8.33;78.95;98325.25;10187469;29;20052;-62
2022/11/22 03:20:33;;;;;;;9.65;3.45;;;;;;;8.31;79.67;98326.47;10212506;29;20047;-63
2022/11/22 03:25:38;;;;;;;8.02;4.18;;;;;;;8.33;79.60;98344.00;10211971;29;20125;-63
2022/11/22 03:30:40;;;;;;;7.25;4.20;;;;;;;8.38;78.95;98338.00;10229633;29;20071;-63
2022/11/22 03:46:19;;;;;;;13.05;3.80;;;;;;;8.45;78.93;98346.03;10475652;27;20878;-60
2022/11/22 03:51:20;;;;;;;12.05;4.25;;;;;;;8.43;79.41;98354.28;10448642;28;20144;-60
2022/11/22 03:56:22;;;;;;;12.60;4.47;;;;;;;8.45;79.13;98364.75;10442660;28;20143;-60
2022/11/22 04:01:23;;;;;;;11.77;4.45;;;;;;;8.48;79.09;98359.81;10461168;28;20048;-61
2022/11/22 04:06:25;;;;;;;13.75;4.57;;;;;;;8.51;79.52;98364.75;10491617;28;20079;-61
2022/11/22 04:11:26;;;;;;;10.50;5.32;;;;;;;8.46;79.82;98364.56;10480324;28;20027;-61
2022/11/22 04:16:28;;;;;;;16.90;6.43;;;;;;;8.52;79.33;98369.06;10489114;28;20049;-61
2022/11/22 04:21:35;;;;;;;15.10;7.20;;;;;;;8.50;79.54;98367.63;10494653;28;20036;-61
2022/11/22 04:26:36;;;;;;;15.00;7.38;;;;;;;8.47;80.22;98368.88;10494852;28;20063;-61
2022/11/22 04:36:58;;;;;;;21.02;8.18;;;;;;;8.73;80.04;98359.09;10484391;28;20399;-61
2022/11/22 05:03:14;;;;;;;18.63;10.07;;;;;;;8.83;80.35;98370.19;10801760;22;20106;-89
2022/11/22 05:08:15;;;;;;;20.48;8.85;;;;;;;8.89;80.54;98373.88;10437413;28;20064;-90
2022/11/22 05:13:18;;;;;;;18.70;8.85;;;;;;;8.85;80.55;98383.38;10440660;28;20037;-89
2022/11/22 05:18:21;;;;;;;19.05;8.70;;;;;;;8.84;80.97;98390.56;10428150;28;20079;-89
2022/11/22 05:28:43;;;;;;;15.88;8.52;;;;;;;8.91;80.92;98404.75;10528343;22;20034;-89
2022/11/22 05:33:45;;;;;;;19.92;8.68;;;;;;;8.97;80.69;98402.28;10402668;28;20026;-89
2022/11/22 05:38:47;;;;;;;20.73;8.75;;;;;;;9.02;80.95;98400.56;10410709;28;20046;-89
2022/11/22 05:43:49;;;;;;;16.80;8.05;;;;;;;8.97;80.67;98408.44;10395161;28;20098;-89
2022/11/22 05:48:52;;;;;;;18.88;8.02;;;;;;;8.99;80.80;98410.91;10400947;28;20053;-89
2022/11/22 05:53:56;;;;;;;17.75;7.20;;;;;;;9.03;81.03;98428.22;10409911;28;20046;-89
2022/11/22 05:59:06;;;;;;;13.98;6.82;;;;;;;9.02;80.56;98423.88;10420687;28;20041;-89
2022/11/22 06:04:07;;;;;;;19.75;7.75;;;;;;;9.04;80.64;98429.84;10400742;28;20085;-90
2022/11/22 06:09:09;;;;;;;13.65;7.25;;;;;;;9.00;80.52;98440.16;10385398;28;20056;-89
2022/11/22 06:14:10;;;;;;;13.30;6.18;;;;;;;8.99;80.68;98446.56;10390610;28;20052;-89
2022/11/22 06:19:12;;;;;;;15.48;6.05;;;;;;;9.04;80.66;98460.13;10395996;28;20046;-89
2022/11/22 06:24:14;;;;;;;15.70;5.78;;;;;;;9.06;80.72;98457.25;10386933;28;20110;-90
2022/11/22 06:29:15;;;;;;;25.30;6.90;;;;;;;8.99;80.63;98459.16;10391296;28;20045;-91
2022/11/22 06:34:17;;;;;;;15.35;4.65;;;;;;;8.90;80.19;98482.66;10405807;28;20076;-91
2022/11/22 06:39:18;;;;;;;15.25;5.03;;;;;;;8.86;80.43;98495.66;10399942;28;20033;-89
2022/11/22 06:44:20;;;;;;;8.52;3.50;;;;;;;8.86;80.19;98501.00;10383559;28;20046;-89
2022/11/22 06:49:22;;;;;;;9.80;4.65;;;;;;;8.84;80.26;98492.38;10379942;28;20049;-88
2022/11/22 06:54:23;;;;;;;12.35;3.80;;;;;;;8.87;79.98;98499.19;10362335;23;20057;-69
2022/11/22 06:59:25;;;;;;;18.77;3.45;;;;;;;8.81;79.84;98506.19;10341777;28;20134;-69
2022/11/22 07:04:26;;;;;;;12.15;4.40;;;;;;;8.75;79.56;98504.38;10340379;28;20662;-63
2022/11/22 07:09:28;;;;;;;11.85;3.47;;;;;;;8.69;79.64;98516.75;10347133;28;20051;-65
2022/11/22 07:14:30;;;;;;;26.70;4.80;;;;;;;8.60;79.70;98517.97;10351878;28;20037;-60
2022/11/22 07:19:32;;;;;;;27.85;4.38;;;;;;;8.51;80.11;98536.13;10355908;28;20041;-61
2022/11/22 07:24:33;;;;;;;19.30;5.13;;;;;;;8.42;79.65;98544.59;10361209;28;20045;-62
2022/11/22 07:29:35;;;;;;;12.52;4.32;;;;;;;8.38;79.88;98544.13;10359844;28;20066;-62
2022/11/22 07:34:36;;;;;;;16.95;4.97;;;;;;;8.41;79.80;98540.22;10358695;28;20070;-60
2022/11/22 07:39:37;;;;;;;16.52;4.57;;;;;;;8.40;79.44;98546.63;10357288;28;20420;-61
2022/11/22 07:44:39;;;;;;;17.60;4.13;;;;;;;8.33;80.15;98554.63;10344565;28;20181;-62
2022/11/22 07:49:40;;;;;;;16.13;4.00;;;;;;;8.45;79.29;98571.78;10341228;28;20042;-60
2022/11/22 07:54:41;;;;;;;20.20;3.45;;;;;;;8.55;79.88;98568.69;10337271;28;20065;-62
2022/11/22 07:59:43;;;;;;;15.77;6.57;;;;;;;8.64;79.55;98572.78;10343483;28;20062;-62
2022/11/22 08:04:45;;;;;;;16.30;5.50;;;;;;;8.73;79.94;98576.06;10344609;28;20052;-60
2022/11/22 08:09:46;;;;;;;14.35;6.00;;;;;;;8.77;80.04;98595.22;10346995;28;20077;-60
2022/11/22 08:14:47;;;;;;;14.52;5.63;;;;;;;8.78;79.93;98608.41;10341405;28;20424;-61
2022/11/22 08:19:52;;;;;;;13.30;5.10;;;;;;;8.80;79.68;98598.31;10344247;28;20544;-61
2022/11/22 08:24:53;;;;;;;12.27;2.85;;;;;;;8.90;79.70;98597.88;10352307;28;20035;-61
2022/11/22 08:29:55;;;;;;;11.15;2.58;;;;;;;8.93;79.82;98597.47;10356385;28;20442;-60
2022/11/22 08:34:56;;;;;;;16.27;2.35;;;;;;;9.03;80.02;98613.94;10348738;28;20080;-61
2022/11/22 08:39:57;;;;;;;13.63;3.50;;;;;;;9.08;80.05;98622.19;10349804;28;20125;-60
2022/11/22 08:44:59;;;;;;;15.80;1.92;;;;;;;9.20;80.17;98619.69;10354652;28;20074;-60
2022/11/22 08:50:00;;;;;;;5.50;1.83;;;;;;;9.35;80.01;98614.06;10351864;28;20124;-61
2022/11/22 08:55:01;;;;;;;9.60;2.65;;;;;;;9.47;79.82;98608.88;10363594;28;20086;-59
2022/11/22 09:00:05;;;;;;;15.65;2.58;;;;;;;9.54;79.71;98615.06;10360328;28;20049;-63
2022/11/22 09:05:06;;;;;;;10.88;1.20;;;;;;;9.54;79.79;98609.69;10356354;28;20124;-60
2022/11/22 09:10:08;;;;;;;11.88;1.27;;;;;;;9.45;79.85;98614.44;10357847;28;20074;-59
2022/11/22 09:15:10;;;;;;;12.90;2.40;;;;;;;9.51;79.56;98618.97;10356346;28;20045;-61
2022/11/22 09:20:11;;;;;;;4.05;0.80;;;;;;;9.40;79.53;98608.91;10353245;28;20145;-60
2022/11/22 09:25:13;;;;;;;10.25;1.00;;;;;;;9.43;79.31;98616.53;10357491;28;20129;-60
2022/11/22 09:30:14;;;;;;;9.00;2.28;;;;;;;9.52;79.09;98622.50;10353838;28;20049;-63
2022/11/22 09:35:18;;;;;;;9.02;1.08;;;;;;;9.55;79.24;98626.59;10359622;28;20049;-60
2022/11/22 09:40:20;;;;;;;8.70;1.55;;;;;;;9.62;78.84;98622.84;10351472;28;20081;-58
2022/11/22 09:45:51;;;;;;;10.90;1.75;;;;;;;9.54;79.03;98615.06;10360006;28;20058;-61
2022/11/22 09:51:18;;;;;;;9.68;0.80;;;;;;;9.56;79.09;98628.22;10355695;28;20081;-59
2022/11/22 09:56:23;;;;;;;13.82;1.45;;;;;;;9.55;79.59;98624.72;10354490;28;20073;-60
2022/11/22 10:01:30;;;;;;;10.15;1.35;;;;;;;9.58;79.35;98616.28;10365605;28;20141;-59
2022/11/22 10:06:36;;;;;;;7.07;0.77;;;;;;;9.58;78.99;98613.59;10354233;28;20050;-61
2022/11/22 10:11:48;;;;;;;6.40;1.23;;;;;;;9.63;78.69;98610.25;10355160;28;20110;-60
2022/11/22 10:17:05;;;;;;;14.38;1.65;;;;;;;9.66;78.57;98593.75;10355509;28;20461;-60
2022/11/22 10:22:13;;;;;;;;;;;;;;;9.65;79.48;98595.59;10357244;28;20085;-60
2022/11/22 10:27:15;;;;;;;7.17;0.67;;;;;;;9.63;79.29;98600.34;10356102;28;19926;-58
2022/11/22 10:32:17;;;;;;;9.18;0.65;;;;;;;9.62;78.88;98595.22;10374975;28;20038;-58
2022/11/22 10:37:33;;;;;;;11.60;0.57;;;;;;;9.68;78.38;98599.72;10373508;28;20505;-58
2022/11/22 10:42:56;;;;;;;11.30;1.33;;;;;;;9.81;78.03;98612.25;10350222;28;20571;-59
2022/11/22 10:48:07;;;;;;;6.78;1.25;;;;;;;9.82;78.10;98606.66;10356000;28;20077;-58
2022/11/22 10:53:21;;;;;;;5.55;0.93;;;;;;;9.96;77.63;98606.59;10350867;28;20053;-60
2022/11/22 10:59:03;;;;;;;6.80;1.05;;;;;;;10.09;77.73;98614.56;10351851;28;20073;-59
2022/11/22 11:04:06;;;;;;;8.57;2.13;;;;;;;10.03;77.50;98610.06;10347803;28;20125;-59
2022/11/22 11:09:39;;;;;;;8.25;1.55;;;;;;;10.03;77.30;98608.22;10350148;28;20192;-59
2022/11/22 11:15:33;;;;;;;6.30;0.60;;;;;;;10.24;76.93;98615.09;10346601;28;20054;-60
2022/11/22 11:20:37;;;;;;;8.63;0.55;;;;;;;10.20;77.00;98607.69;10358593;28;20713;-59
2022/11/22 11:25:42;;;;;;;6.32;0.80;;;;;;;10.33;76.79;98602.28;10351994;28;20042;-58
2022/11/22 11:31:06;;;;;;;9.20;1.65;;;;;;;10.51;76.32;98594.25;10351209;28;20042;-59
2022/11/22 11:36:20;;;;;;;6.70;0.65;;;;;;;10.64;75.58;98595.19;10351902;28;20076;-58
2022/11/22 11:41:30;;;;;;;7.78;0.55;;;;;;;10.70;75.75;98605.91;10359372;28;20165;-58
2022/11/22 11:46:35;;;;;;;12.18;0.52;;;;;;;10.65;75.80;98599.53;10359388;28;20121;-59
2022/11/22 11:51:40;;;;;;;4.72;0.70;;;;;;;10.65;75.82;98597.66;10355652;28;20108;-59
2022/11/22 11:57:02;;;;;;;4.63;0.60;;;;;;;10.53;75.54;98599.44;10354025;28;20073;-58
2022/11/22 12:02:13;;;;;;;6.80;0.70;;;;;;;10.58;75.21;98588.00;10363160;28;20034;-58
2022/11/22 12:07:45;;;;;;;7.93;1.17;;;;;;;10.56;75.48;98580.16;10360252;28;20049;-58
2022/11/22 12:12:57;;;;;;;4.95;0.82;;;;;;;10.52;75.35;98585.19;10344491;28;20043;-61
2022/11/22 12:18:18;;;;;;;;;;;;;;;10.71;76.71;98588.72;10357619;28;20272;-63
2022/11/22 12:23:25;;;;;;;5.75;0.40;;;;;;;10.70;75.61;98576.34;10363201;28;20020;-59
2022/11/22 12:28:28;;;;;;;5.43;0.60;;;;;;;10.86;75.30;98576.78;10356411;28;20080;-60
2022/11/22 12:33:36;;;;;;;11.20;1.90;;;;;;;10.89;74.93;98568.28;10351287;28;20046;-60
2022/11/22 12:38:43;;;;;;;4.53;0.50;;;;;;;10.97;74.62;98562.63;10347622;28;20624;-61
2022/11/22 12:43:52;;;;;;;7.57;0.88;;;;;;;10.90;74.62;98578.84;10352967;28;20038;-60
2022/11/22 12:49:31;;;;;;;8.27;0.40;;;;;;;10.81;74.30;98571.28;10352236;28;20069;-60
2022/11/22 12:54:43;;;;;;;7.32;0.50;;;;;;;10.92;74.12;98570.56;10284011;28;20046;-60
2022/11/22 12:59:52;;;;;;;10.23;1.85;;;;;;;10.89;73.40;98561.06;10357892;28;20078;-61
2022/11/22 13:05:00;;;;;;;4.65;0.30;;;;;;;11.00;73.06;98561.34;10357053;28;20136;-59
2022/11/22 13:10:10;;;;;;;10.68;1.80;;;;;;;11.11;73.06;98560.63;10358595;28;20050;-60
2022/11/22 13:15:15;;;;;;;6.85;0.30;;;;;;;11.15;73.26;98563.69;10365895;28;20125;-63
2022/11/22 13:20:20;;;;;;;6.15;0.30;;;;;;;11.02;72.61;98559.25;10355697;28;20069;-59
2022/11/22 13:25:40;;;;;;;3.38;0.80;;;;;;;11.02;72.09;98560.09;10355766;28;20077;-59
2022/11/22 13:31:06;;;;;;;3.70;0.50;;;;;;;11.03;72.45;98558.22;10353962;28;20125;-59
2022/11/22 13:36:25;;;;;;;4.68;1.58;;;;;;;10.94;72.28;98549.66;10355419;28;20077;-62
2022/11/22 13:41:36;;;;;;;5.53;0.43;;;;;;;11.00;71.85;98545.22;10354396;28;20042;-60
2022/11/22 13:46:59;;;;;;;4.50;0.50;;;;;;;11.02;71.50;98549.34;10351749;28;20463;-61
2022/11/22 13:52:24;;;;;;;3.03;0.50;;;;;;;10.87;71.64;98549.69;10353452;28;20042;-60
2022/11/22 13:57:34;;;;;;;15.40;5.40;;;;;;;10.89;71.43;98552.97;10353044;28;20140;-60
2022/11/22 14:02:36;;;;;;;6.57;1.05;;;;;;;10.85;71.42;98549.09;10347988;28;20461;-60
2022/11/22 14:07:39;;;;;;;3.65;0.47;;;;;;;10.80;71.77;98543.59;10353837;28;20065;-60
2022/11/22 14:12:53;;;;;;;2.55;0.20;;;;;;;10.77;71.22;98541.34;10358269;28;20042;-59
2022/11/22 14:18:23;;;;;;;5.25;0.40;;;;;;;10.77;71.50;98538.63;10351793;28;20593;-60
2022/11/22 14:23:49;;;;;;;3.03;0.40;;;;;;;10.82;70.93;98537.97;10355114;28;20045;-59
2022/11/22 14:29:15;;;;;;;4.65;0.73;;;;;;;10.81;70.75;98534.47;10360274;28;20077;-61
2022/11/22 14:34:23;;;;;;;9.90;0.60;;;;;;;10.65;70.99;98533.19;10355689;28;20091;-60
2022/11/22 14:39:43;;;;;;;3.72;0.30;;;;;;;10.63;70.83;98540.63;10359299;28;20069;-59
2022/11/22 14:44:45;;;;;;;5.55;0.50;;;;;;;10.65;71.11;98551.97;10361476;28;20034;-56
2022/11/22 14:49:49;;;;;;;1.85;0.40;;;;;;;10.64;70.78;98549.50;10357510;28;20520;-58
2022/11/22 14:54:59;;;;;;;6.88;0.52;;;;;;;10.57;70.75;98548.78;10360179;28;20529;-56
2022/11/22 15:00:21;;;;;;;4.03;0.32;;;;;;;10.38;71.45;98555.94;10348187;28;20054;-57
2022/11/22 15:05:44;;;;;;;1.27;0.20;;;;;;;10.11;71.85;98553.41;10354714;28;20096;-60
2022/11/22 15:11:44;;;;;;;2.45;0.28;;;;;;;10.02;71.96;98560.09;10355922;28;20041;-62
2022/11/22 15:16:53;;;;;;;2.15;0.22;;;;;;;10.03;71.71;98562.59;10376113;28;20050;-61
2022/11/22 15:22:22;;;;;;;2.75;0.30;;;;;;;10.11;71.58;98578.41;10353789;28;20120;-57
2022/11/22 15:27:45;;;;;;;4.00;0.40;;;;;;;10.09;71.70;98574.28;10352622;28;20062;-57
2022/11/22 15:33:18;;;;;;;2.45;0.93;;;;;;;10.05;71.67;98584.66;10349288;28;20045;-58
2022/11/22 15:38:41;;;;;;;3.25;0.28;;;;;;;10.02;71.86;98585.06;10347837;28;20090;-60
2022/11/22 15:44:06;;;;;;;2.33;0.28;;;;;;;10.02;71.56;98605.75;10350565;28;20034;-57
2022/11/22 15:49:28;;;;;;;2.47;0.20;;;;;;;10.02;71.86;98617.28;10349981;28;20409;-59
2022/11/22 15:54:55;;;;;;;4.05;0.30;;;;;;;10.09;71.25;98612.72;10356071;28;20047;-58
2022/11/22 16:00:25;;;;;;;0.60;0.37;;;;;;;10.02;71.76;98633.41;10349143;28;20100;-57
2022/11/22 16:05:34;;;;;;;2.75;0.22;;;;;;;10.07;72.11;98638.97;10353098;28;20108;-58
2022/11/22 16:10:55;;;;;;;3.25;0.28;;;;;;;10.08;72.04;98637.91;10360894;28;20068;-57
2022/11/22 16:16:09;;;;;;;3.13;0.30;;;;;;;10.08;71.67;98647.81;10371947;28;20041;-60
2022/11/22 16:21:10;;;;;;;2.97;0.82;;;;;;;10.07;72.21;98640.78;10380723;28;20046;-62
2022/11/22 16:26:18;;;;;;;5.32;0.75;;;;;;;10.07;71.81;98649.69;10381321;28;20049;-61
2022/11/22 16:31:26;;;;;;;1.27;0.10;;;;;;;10.08;72.12;98648.63;10377842;28;20112;-60
2022/11/22 16:36:28;;;;;;;2.20;0.20;;;;;;;10.12;72.26;98643.66;10377787;28;20046;-62
2022/11/22 16:41:30;;;;;;;3.83;0.28;;;;;;;10.07;72.58;98652.38;10392486;28;20060;-62
2022/11/22 16:46:31;;;;;;;2.92;0.35;;;;;;;10.09;72.36;98658.34;10400731;28;20045;-61
2022/11/22 16:51:33;;;;;;;1.55;0.30;;;;;;;10.03;72.52;98658.38;10393645;28;20520;-62
2022/11/22 16:56:34;;;;;;;3.35;0.52;;;;;;;10.08;72.41;98655.88;10395458;28;20042;-60
2022/11/22 17:01:36;;;;;;;1.50;0.20;;;;;;;10.09;72.39;98661.03;10387543;28;20046;-59
2022/11/22 17:06:37;;;;;;;1.85;0.38;;;;;;;9.99;72.77;98676.78;10373072;28;20132;-60
2022/11/22 17:11:42;;;;;;;2.40;0.40;;;;;;;9.84;73.45;98687.78;10384949;28;20052;-59
2022/11/22 17:16:47;;;;;;;1.15;0.30;;;;;;;9.65;73.92;98684.13;10366715;28;20109;-59
2022/11/22 17:21:48;;;;;;;2.75;0.30;;;;;;;9.47;74.58;98687.47;10364326;28;20058;-59
2022/11/22 17:26:50;;;;;;;2.95;0.55;;;;;;;9.43;74.70;98693.47;10367076;28;20046;-61
2022/11/22 17:31:51;;;;;;;2.20;0.50;;;;;;;9.38;74.93;98686.06;10363651;28;20065;-62
2022/11/22 17:36:52;;;;;;;1.98;0.50;;;;;;;9.36;75.25;98690.81;10356557;28;20459;-60
2022/11/22 17:41:54;;;;;;;1.80;0.60;;;;;;;9.33;75.39;98697.41;10348117;28;20134;-61
2022/11/22 17:46:55;;;;;;;3.65;0.30;;;;;;;9.34;75.40;98700.94;10362457;28;20065;-61
2022/11/22 17:51:56;;;;;;;3.50;0.38;;;;;;;9.36;75.65;98703.38;10370497;28;20108;-60
2022/11/22 17:56:58;;;;;;;1.23;0.35;;;;;;;9.32;75.87;98703.81;10361855;28;20089;-62
2022/11/22 18:01:59;;;;;;;3.40;0.60;;;;;;;9.44;75.75;98709.38;10362359;28;20049;-60
2022/11/22 18:07:00;;;;;;;3.17;0.63;;;;;;;9.41;75.73;98704.41;10385239;28;20085;-62
2022/11/22 18:12:02;;;;;;;5.47;0.60;;;;;;;9.41;76.03;98703.59;10375209;28;20049;-61
2022/11/22 18:17:03;;;;;;;1.67;0.50;;;;;;;9.50;75.78;98700.47;10366826;28;20042;-61
2022/11/22 18:22:05;;;;;;;4.20;0.80;;;;;;;9.52;75.96;98703.78;10376905;28;20038;-61
2022/11/22 18:27:06;;;;;;;2.47;0.52;;;;;;;9.53;75.84;98712.63;10370376;28;20056;-61
2022/11/22 18:32:08;;;;;;;3.38;0.95;;;;;;;9.50;76.22;98713.06;10375012;28;20054;-60
2022/11/22 18:37:10;;;;;;;3.72;1.05;;;;;;;9.52;76.16;98719.06;10374012;28;20050;-62
2022/11/22 18:42:14;;;;;;;1.38;0.55;;;;;;;9.58;76.00;98720.88;10370005;28;20065;-60
2022/11/22 18:47:15;;;;;;;1.55;0.60;;;;;;;9.53;76.26;98723.38;10375763;28;20038;-61
2022/11/22 18:52:17;;;;;;;2.53;0.60;;;;;;;9.57;76.26;98729.16;10385828;28;20042;-61
2022/11/22 18:57:18;;;;;;;1.80;0.73;;;;;;;9.62;76.18;98729.34;10380055;28;20103;-61
2022/11/22 19:02:24;;;;;;;1.30;0.85;;;;;;;9.61;76.61;98722.31;10382959;28;20053;-61
2022/11/22 19:07:25;;;;;;;2.13;1.02;;;;;;;9.59;76.39;98719.03;10377641;28;20056;-61
2022/11/22 19:12:27;;;;;;;3.80;1.63;;;;;;;9.57;76.40;98721.91;10377991;28;20050;-61
2022/11/22 19:17:29;;;;;;;3.97;1.58;;;;;;;9.57;76.82;98727.28;10387678;28;20026;-61
2022/11/22 19:22:30;;;;;;;2.75;1.52;;;;;;;9.59;76.48;98725.22;10380690;28;20184;-60
2022/11/22 19:27:31;;;;;;;4.43;1.73;;;;;;;9.67;76.45;98722.28;10370109;28;20046;-60
2022/11/22 19:32:33;;;;;;;3.47;1.10;;;;;;;9.67;76.52;98727.66;10384365;28;20042;-61
2022/11/22 19:37:35;;;;;;;4.20;1.10;;;;;;;9.70;76.29;98732.63;10394226;28;20042;-61
2022/11/22 19:42:38;;;;;;;4.32;0.93;;;;;;;9.71;76.63;98739.63;10385309;28;20042;-63
2022/11/22 19:47:40;;;;;;;5.63;1.70;;;;;;;9.73;76.35;98742.94;10383852;28;20043;-61
2022/11/22 19:52:41;;;;;;;3.75;1.35;;;;;;;9.77;76.40;98748.69;10389127;28;20042;-61
2022/11/22 19:57:42;;;;;;;2.65;1.25;;;;;;;9.75;76.49;98756.13;10382599;28;20053;-62
2022/11/22 20:02:44;;;;;;;8.05;1.25;;;;;;;9.75;76.50;98758.00;10386827;28;20036;-60
2022/11/22 20:07:45;;;;;;;7.35;1.63;;;;;;;9.69;76.63;98749.72;10372512;28;20338;-61
2022/11/22 20:12:48;;;;;;;4.60;1.25;;;;;;;9.67;76.74;98756.34;10370209;28;20056;-62
2022/11/22 20:17:49;;;;;;;3.10;0.90;;;;;;;9.69;76.75;98755.09;10389436;28;20037;-63
2022/11/22 20:22:51;;;;;;;5.50;1.40;;;;;;;9.66;76.77;98757.41;10388376;28;20045;-63
2022/11/22 20:27:52;;;;;;;6.68;2.25;;;;;;;9.62;76.58;98770.41;10374375;28;20121;-65
2022/11/22 20:32:53;;;;;;;4.90;2.35;;;;;;;9.60;76.29;98769.78;10390276;28;20042;-64
2022/11/22 20:37:55;;;;;;;8.00;3.22;;;;;;;9.60;76.59;98777.03;10382667;28;20063;-63
2022/11/22 20:42:56;;;;;;;8.55;3.22;;;;;;;9.56;76.34;98779.28;10373757;28;20053;-63
2022/11/22 20:47:58;;;;;;;6.53;2.85;;;;;;;9.45;76.88;98778.06;10370397;28;20068;-61
2022/11/22 20:52:59;;;;;;;9.55;3.25;;;;;;;9.30;76.84;98794.38;10375876;28;20092;-64
2022/11/22 20:58:00;;;;;;;6.93;2.08;;;;;;;9.24;76.92;98803.25;10379365;28;20038;-64
2022/11/22 21:03:02;;;;;;;5.28;2.10;;;;;;;9.15;77.00;98800.97;10384586;28;20847;-63
2022/11/22 21:08:03;;;;;;;5.15;2.25;;;;;;;9.13;76.88;98801.16;10393692;28;20058;-64
2022/11/22 21:13:05;;;;;;;8.35;2.42;;;;;;;9.03;77.07;98819.50;10377302;28;20125;-62
2022/11/22 21:18:08;;;;;;;6.03;2.22;;;;;;;8.97;77.18;98817.63;10369327;28;20050;-64
2022/11/22 21:23:25;;;;;;;7.53;2.33;;;;;;;8.99;76.83;98826.31;10393504;28;20050;-64
2022/11/22 21:28:27;;;;;;;7.10;2.50;;;;;;;8.97;76.95;98833.72;10385434;28;20046;-64
2022/11/22 21:33:31;;;;;;;5.43;2.08;;;;;;;8.98;77.48;98830.81;10376063;28;20052;-64
2022/11/22 21:38:33;;;;;;;9.05;2.25;;;;;;;9.00;77.48;98836.78;10379933;28;20045;-63
2022/11/22 21:43:35;;;;;;;9.95;2.85;;;;;;;9.00;77.35;98833.31;10369881;28;20149;-61
2022/11/22 21:48:36;;;;;;;7.18;2.13;;;;;;;9.08;77.09;98833.94;10383775;28;20042;-62
2022/11/22 21:53:38;;;;;;;5.68;1.73;;;;;;;9.21;76.76;98835.00;10374098;28;20049;-62
2022/11/22 21:58:41;;;;;;;4.97;1.90;;;;;;;9.13;77.42;98844.06;10380893;28;20550;-61
2022/11/22 22:03:42;;;;;;;6.13;1.60;;;;;;;9.20;77.34;98846.72;10370363;28;20487;-62
2022/11/22 22:08:43;;;;;;;6.70;1.88;;;;;;;9.26;77.12;98848.59;10366569;28;20069;-63
2022/11/22 22:13:45;;;;;;;4.78;1.48;;;;;;;9.32;76.98;98858.50;10366567;28;20501;-63
2022/11/22 22:18:46;;;;;;;7.75;1.65;;;;;;;9.36;76.97;98865.13;10374342;28;20046;-62
2022/11/22 22:23:48;;;;;;;4.93;1.35;;;;;;;9.42;76.83;98868.81;10369905;28;20050;-62
2022/11/22 22:28:51;;;;;;;8.02;1.60;;;;;;;9.39;76.62;98861.19;10371303;28;20051;-62
2022/11/22 22:33:54;;;;;;;6.78;2.00;;;;;;;9.42;76.69;98863.44;10377381;28;20046;-62
2022/11/22 22:38:55;;;;;;;6.28;1.60;;;;;;;9.42;76.85;98858.09;10359953;28;20096;-63
2022/11/22 22:43:57;;;;;;;9.55;2.15;;;;;;;9.42;76.62;98869.66;10388045;28;20042;-63
2022/11/22 22:48:59;;;;;;;9.20;2.25;;;;;;;9.41;76.57;98853.78;10363270;28;20054;-62
2022/11/22 22:54:00;;;;;;;10.07;2.58;;;;;;;9.38;76.82;98864.91;10366335;28;20050;-62
2022/11/22 22:59:04;;;;;;;7.45;2.28;;;;;;;9.32;76.94;98867.38;10365296;28;20046;-62
2022/11/22 23:04:05;;;;;;;10.43;3.00;;;;;;;9.27;76.68;98869.84;10365300;28;20044;-62
2022/11/22 23:09:09;;;;;;;9.80;2.33;;;;;;;9.25;76.93;98871.91;10356603;28;20058;-63
2022/11/22 23:14:12;;;;;;;9.00;1.75;;;;;;;9.26;76.98;98880.75;10360606;28;20605;-62
2022/11/22 23:19:14;;;;;;;5.32;1.42;;;;;;;9.32;76.76;98875.44;10354936;28;20066;-63
2022/11/22 23:24:15;;;;;;;3.08;0.90;;;;;;;9.36;76.74;98877.69;10358345;28;20055;-62
2022/11/22 23:29:16;;;;;;;7.75;1.33;;;;;;;9.39;76.82;98886.16;10360126;28;20050;-63
2022/11/22 23:34:18;;;;;;;5.03;0.90;;;;;;;9.47;76.76;98883.25;10361362;28;20121;-63
2022/11/22 23:39:20;;;;;;;7.28;0.80;;;;;;;9.52;76.19;98886.16;10363252;28;20042;-61
2022/11/22 23:44:21;;;;;;;7.75;0.80;;;;;;;9.51;76.39;98891.75;10357644;28;20038;-64
2022/11/22 23:49:22;;;;;;;6.15;0.75;;;;;;;9.48;76.50;98894.84;10353284;28;20441;-65
2022/11/22 23:54:24;;;;;;;4.20;0.85;;;;;;;9.47;76.49;98893.19;10353809;28;20472;-64
2022/11/22 23:59:25;;;;;;;4.00;0.90;;;;;;;9.56;76.15;98896.47;10356810;28;20066;-65
